sensor_id;sensor_type;location;lat;lon;timestamp;P1;durP1;ratioP1;P2;durP2;ratioP2
23317;SDS011;11831;55.918;37.746;2023-06-14T00:02:16;10.18;;;5.05;;
23317;SDS011;11831;55.918;37.746;2023-06-14T00:04:42;7.55;;;4.50;;
23317;SDS011;11831;55.918;37.746;2023-06-14T00:07:09;11.45;;;5.50;;
23317;SDS011;11831;55.918;37.746;2023-06-14T00:09:36;13.77;;;4.90;;
23317;SDS011;11831;55.918;37.746;2023-06-14T00:12:02;10.07;;;5.03;;
23317;SDS011;11831;55.918;37.746;2023-06-14T00:14:29;12.65;;;5.65;;
23317;SDS011;11831;55.918;37.746;2023-06-14T00:16:55;13.90;;;5.57;;
23317;SDS011;11831;55.918;37.746;2023-06-14T00:19:26;10.65;;;5.62;;
23317;SDS011;11831;55.918;37.746;2023-06-14T00:21:53;14.27;;;6.00;;
23317;SDS011;11831;55.918;37.746;2023-06-14T00:24:19;11.68;;;4.93;;
23317;SDS011;11831;55.918;37.746;2023-06-14T00:26:47;13.15;;;5.62;;
23317;SDS011;11831;55.918;37.746;2023-06-14T00:29:14;13.62;;;5.57;;
23317;SDS011;11831;55.918;37.746;2023-06-14T00:31:40;16.70;;;5.57;;
23317;SDS011;11831;55.918;37.746;2023-06-14T00:34:07;13.98;;;5.62;;
23317;SDS011;11831;55.918;37.746;2023-06-14T00:36:35;12.88;;;5.57;;
23317;SDS011;11831;55.918;37.746;2023-06-14T00:39:01;11.52;;;5.15;;
23317;SDS011;11831;55.918;37.746;2023-06-14T00:41:29;14.70;;;5.35;;
23317;SDS011;11831;55.918;37.746;2023-06-14T00:43:55;13.45;;;5.35;;
23317;SDS011;11831;55.918;37.746;2023-06-14T00:46:22;10.55;;;5.05;;
23317;SDS011;11831;55.918;37.746;2023-06-14T00:48:49;13.45;;;5.12;;
23317;SDS011;11831;55.918;37.746;2023-06-14T00:51:16;12.95;;;4.90;;
23317;SDS011;11831;55.918;37.746;2023-06-14T00:53:44;10.90;;;4.87;;
23317;SDS011;11831;55.918;37.746;2023-06-14T00:56:13;10.75;;;5.00;;
23317;SDS011;11831;55.918;37.746;2023-06-14T00:58:42;7.15;;;4.65;;
23317;SDS011;11831;55.918;37.746;2023-06-14T01:01:09;10.85;;;5.68;;
23317;SDS011;11831;55.918;37.746;2023-06-14T01:03:36;13.52;;;5.68;;
23317;SDS011;11831;55.918;37.746;2023-06-14T01:06:15;9.07;;;4.40;;
23317;SDS011;11831;55.918;37.746;2023-06-14T01:09:10;14.60;;;5.47;;
23317;SDS011;11831;55.918;37.746;2023-06-14T01:11:47;11.55;;;5.05;;
23317;SDS011;11831;55.918;37.746;2023-06-14T01:14:35;9.35;;;4.87;;
23317;SDS011;11831;55.918;37.746;2023-06-14T01:17:03;9.52;;;5.03;;
23317;SDS011;11831;55.918;37.746;2023-06-14T01:19:30;9.93;;;5.62;;
23317;SDS011;11831;55.918;37.746;2023-06-14T01:22:00;9.15;;;5.00;;
23317;SDS011;11831;55.918;37.746;2023-06-14T01:24:28;11.50;;;5.10;;
23317;SDS011;11831;55.918;37.746;2023-06-14T01:26:58;11.35;;;5.03;;
23317;SDS011;11831;55.918;37.746;2023-06-14T01:29:28;13.45;;;5.15;;
23317;SDS011;11831;55.918;37.746;2023-06-14T01:32:04;11.63;;;5.72;;
23317;SDS011;11831;55.918;37.746;2023-06-14T01:34:32;14.63;;;5.20;;
23317;SDS011;11831;55.918;37.746;2023-06-14T01:37:00;9.25;;;5.35;;
23317;SDS011;11831;55.918;37.746;2023-06-14T01:39:28;11.88;;;5.30;;
23317;SDS011;11831;55.918;37.746;2023-06-14T01:41:56;15.23;;;5.55;;
23317;SDS011;11831;55.918;37.746;2023-06-14T01:44:24;17.35;;;6.80;;
23317;SDS011;11831;55.918;37.746;2023-06-14T01:46:51;11.48;;;6.45;;
23317;SDS011;11831;55.918;37.746;2023-06-14T01:49:18;17.33;;;6.60;;
23317;SDS011;11831;55.918;37.746;2023-06-14T01:51:46;13.35;;;6.07;;
23317;SDS011;11831;55.918;37.746;2023-06-14T01:54:12;8.43;;;5.45;;
23317;SDS011;11831;55.918;37.746;2023-06-14T01:56:39;14.57;;;5.47;;
23317;SDS011;11831;55.918;37.746;2023-06-14T01:59:06;11.70;;;5.62;;
23317;SDS011;11831;55.918;37.746;2023-06-14T02:01:33;13.45;;;5.70;;
23317;SDS011;11831;55.918;37.746;2023-06-14T02:04:00;10.18;;;5.68;;
23317;SDS011;11831;55.918;37.746;2023-06-14T02:06:26;9.98;;;4.90;;
23317;SDS011;11831;55.918;37.746;2023-06-14T02:08:54;11.35;;;5.32;;
23317;SDS011;11831;55.918;37.746;2023-06-14T02:11:20;12.90;;;5.50;;
23317;SDS011;11831;55.918;37.746;2023-06-14T02:13:47;10.27;;;5.40;;
23317;SDS011;11831;55.918;37.746;2023-06-14T02:16:13;12.57;;;6.05;;
23317;SDS011;11831;55.918;37.746;2023-06-14T02:18:40;11.43;;;5.25;;
23317;SDS011;11831;55.918;37.746;2023-06-14T02:21:07;12.52;;;5.65;;
23317;SDS011;11831;55.918;37.746;2023-06-14T02:23:33;10.95;;;5.72;;
23317;SDS011;11831;55.918;37.746;2023-06-14T02:26:00;15.82;;;5.85;;
23317;SDS011;11831;55.918;37.746;2023-06-14T02:28:26;13.20;;;6.60;;
23317;SDS011;11831;55.918;37.746;2023-06-14T02:30:53;15.48;;;6.68;;
23317;SDS011;11831;55.918;37.746;2023-06-14T02:33:19;13.38;;;6.28;;
23317;SDS011;11831;55.918;37.746;2023-06-14T02:35:46;10.05;;;5.35;;
23317;SDS011;11831;55.918;37.746;2023-06-14T02:38:13;12.88;;;6.30;;
23317;SDS011;11831;55.918;37.746;2023-06-14T02:40:40;10.57;;;5.70;;
23317;SDS011;11831;55.918;37.746;2023-06-14T02:43:08;10.60;;;6.72;;
23317;SDS011;11831;55.918;37.746;2023-06-14T02:45:35;12.98;;;6.70;;
23317;SDS011;11831;55.918;37.746;2023-06-14T02:48:01;14.13;;;6.32;;
23317;SDS011;11831;55.918;37.746;2023-06-14T02:50:28;12.55;;;6.35;;
23317;SDS011;11831;55.918;37.746;2023-06-14T02:52:56;15.25;;;6.68;;
23317;SDS011;11831;55.918;37.746;2023-06-14T02:55:22;11.00;;;6.85;;
23317;SDS011;11831;55.918;37.746;2023-06-14T02:57:49;11.02;;;6.65;;
23317;SDS011;11831;55.918;37.746;2023-06-14T03:00:16;12.13;;;6.80;;
23317;SDS011;11831;55.918;37.746;2023-06-14T03:02:43;14.43;;;6.95;;
23317;SDS011;11831;55.918;37.746;2023-06-14T03:05:10;11.12;;;7.55;;
23317;SDS011;11831;55.918;37.746;2023-06-14T03:07:37;10.50;;;7.40;;
23317;SDS011;11831;55.918;37.746;2023-06-14T03:10:07;11.45;;;6.78;;
23317;SDS011;11831;55.918;37.746;2023-06-14T03:12:39;13.95;;;6.90;;
23317;SDS011;11831;55.918;37.746;2023-06-14T03:15:06;14.15;;;6.80;;
23317;SDS011;11831;55.918;37.746;2023-06-14T03:17:33;10.52;;;6.97;;
23317;SDS011;11831;55.918;37.746;2023-06-14T03:20:01;11.02;;;6.45;;
23317;SDS011;11831;55.918;37.746;2023-06-14T03:22:31;10.55;;;6.53;;
23317;SDS011;11831;55.918;37.746;2023-06-14T03:25:00;11.07;;;6.62;;
23317;SDS011;11831;55.918;37.746;2023-06-14T03:27:26;11.85;;;6.32;;
23317;SDS011;11831;55.918;37.746;2023-06-14T03:29:54;9.43;;;6.25;;
23317;SDS011;11831;55.918;37.746;2023-06-14T03:32:21;9.10;;;6.05;;
23317;SDS011;11831;55.918;37.746;2023-06-14T03:34:47;10.68;;;5.95;;
23317;SDS011;11831;55.918;37.746;2023-06-14T03:37:14;10.07;;;6.07;;
23317;SDS011;11831;55.918;37.746;2023-06-14T03:39:40;13.55;;;6.90;;
23317;SDS011;11831;55.918;37.746;2023-06-14T03:42:13;11.23;;;6.43;;
23317;SDS011;11831;55.918;37.746;2023-06-14T03:44:40;11.35;;;6.35;;
23317;SDS011;11831;55.918;37.746;2023-06-14T03:47:06;11.43;;;6.55;;
23317;SDS011;11831;55.918;37.746;2023-06-14T03:49:33;14.68;;;6.65;;
23317;SDS011;11831;55.918;37.746;2023-06-14T03:52:01;18.90;;;8.25;;
23317;SDS011;11831;55.918;37.746;2023-06-14T03:54:28;13.77;;;7.45;;
23317;SDS011;11831;55.918;37.746;2023-06-14T03:56:54;14.68;;;8.27;;
23317;SDS011;11831;55.918;37.746;2023-06-14T03:59:23;30.00;;;8.30;;
23317;SDS011;11831;55.918;37.746;2023-06-14T04:01:50;23.55;;;8.05;;
23317;SDS011;11831;55.918;37.746;2023-06-14T04:04:17;18.35;;;8.05;;
23317;SDS011;11831;55.918;37.746;2023-06-14T04:06:44;17.30;;;7.97;;
23317;SDS011;11831;55.918;37.746;2023-06-14T04:09:14;20.13;;;7.80;;
23317;SDS011;11831;55.918;37.746;2023-06-14T04:11:41;14.60;;;8.13;;
23317;SDS011;11831;55.918;37.746;2023-06-14T04:14:08;22.67;;;7.80;;
23317;SDS011;11831;55.918;37.746;2023-06-14T04:16:34;14.82;;;7.47;;
23317;SDS011;11831;55.918;37.746;2023-06-14T04:19:01;12.93;;;6.97;;
23317;SDS011;11831;55.918;37.746;2023-06-14T04:21:27;15.75;;;7.97;;
23317;SDS011;11831;55.918;37.746;2023-06-14T04:23:54;15.80;;;6.20;;
23317;SDS011;11831;55.918;37.746;2023-06-14T04:26:21;12.82;;;6.15;;
23317;SDS011;11831;55.918;37.746;2023-06-14T04:28:49;14.00;;;6.75;;
23317;SDS011;11831;55.918;37.746;2023-06-14T04:31:17;11.65;;;6.50;;
23317;SDS011;11831;55.918;37.746;2023-06-14T04:33:44;10.85;;;6.80;;
23317;SDS011;11831;55.918;37.746;2023-06-14T04:36:12;14.30;;;6.50;;
23317;SDS011;11831;55.918;37.746;2023-06-14T04:38:39;11.68;;;6.05;;
23317;SDS011;11831;55.918;37.746;2023-06-14T04:41:05;11.95;;;5.78;;
23317;SDS011;11831;55.918;37.746;2023-06-14T04:43:32;12.35;;;5.25;;
23317;SDS011;11831;55.918;37.746;2023-06-14T04:46:04;13.00;;;5.47;;
23317;SDS011;11831;55.918;37.746;2023-06-14T04:48:37;11.98;;;5.15;;
23317;SDS011;11831;55.918;37.746;2023-06-14T04:51:07;13.30;;;5.68;;
23317;SDS011;11831;55.918;37.746;2023-06-14T04:53:36;9.02;;;5.75;;
23317;SDS011;11831;55.918;37.746;2023-06-14T04:56:03;12.77;;;5.15;;
23317;SDS011;11831;55.918;37.746;2023-06-14T04:58:30;8.18;;;4.47;;
23317;SDS011;11831;55.918;37.746;2023-06-14T05:00:57;11.07;;;5.20;;
23317;SDS011;11831;55.918;37.746;2023-06-14T05:03:25;10.48;;;4.43;;
23317;SDS011;11831;55.918;37.746;2023-06-14T05:05:52;8.82;;;4.62;;
23317;SDS011;11831;55.918;37.746;2023-06-14T05:08:20;6.53;;;4.60;;
23317;SDS011;11831;55.918;37.746;2023-06-14T05:10:49;6.77;;;4.20;;
23317;SDS011;11831;55.918;37.746;2023-06-14T05:13:17;7.53;;;4.53;;
23317;SDS011;11831;55.918;37.746;2023-06-14T05:15:44;10.50;;;4.97;;
23317;SDS011;11831;55.918;37.746;2023-06-14T05:18:11;7.28;;;4.90;;
23317;SDS011;11831;55.918;37.746;2023-06-14T05:20:40;7.72;;;5.60;;
23317;SDS011;11831;55.918;37.746;2023-06-14T05:23:08;7.28;;;4.50;;
23317;SDS011;11831;55.918;37.746;2023-06-14T05:25:44;10.35;;;4.10;;
23317;SDS011;11831;55.918;37.746;2023-06-14T05:28:11;9.67;;;4.03;;
23317;SDS011;11831;55.918;37.746;2023-06-14T05:30:38;6.62;;;4.32;;
23317;SDS011;11831;55.918;37.746;2023-06-14T05:33:08;9.70;;;3.87;;
23317;SDS011;11831;55.918;37.746;2023-06-14T05:35:34;7.80;;;3.60;;
23317;SDS011;11831;55.918;37.746;2023-06-14T05:38:01;9.60;;;6.55;;
23317;SDS011;11831;55.918;37.746;2023-06-14T05:40:27;8.85;;;3.95;;
23317;SDS011;11831;55.918;37.746;2023-06-14T05:42:54;7.47;;;4.78;;
23317;SDS011;11831;55.918;37.746;2023-06-14T05:45:20;6.37;;;4.07;;
23317;SDS011;11831;55.918;37.746;2023-06-14T05:47:47;7.50;;;3.90;;
23317;SDS011;11831;55.918;37.746;2023-06-14T05:50:13;5.07;;;3.67;;
23317;SDS011;11831;55.918;37.746;2023-06-14T05:52:39;12.25;;;4.15;;
23317;SDS011;11831;55.918;37.746;2023-06-14T05:55:06;5.07;;;3.17;;
23317;SDS011;11831;55.918;37.746;2023-06-14T05:57:33;8.32;;;3.70;;
23317;SDS011;11831;55.918;37.746;2023-06-14T06:00:00;4.72;;;3.30;;
23317;SDS011;11831;55.918;37.746;2023-06-14T06:02:26;5.85;;;3.50;;
23317;SDS011;11831;55.918;37.746;2023-06-14T06:04:53;7.75;;;3.60;;
23317;SDS011;11831;55.918;37.746;2023-06-14T06:07:19;6.72;;;3.67;;
23317;SDS011;11831;55.918;37.746;2023-06-14T06:09:46;7.35;;;3.28;;
23317;SDS011;11831;55.918;37.746;2023-06-14T06:12:12;4.75;;;3.40;;
23317;SDS011;11831;55.918;37.746;2023-06-14T06:14:39;6.37;;;3.85;;
23317;SDS011;11831;55.918;37.746;2023-06-14T06:17:05;6.32;;;3.42;;
23317;SDS011;11831;55.918;37.746;2023-06-14T06:19:32;8.35;;;3.53;;
23317;SDS011;11831;55.918;37.746;2023-06-14T06:21:59;8.13;;;4.03;;
23317;SDS011;11831;55.918;37.746;2023-06-14T06:24:26;5.57;;;2.85;;
23317;SDS011;11831;55.918;37.746;2023-06-14T06:26:52;6.95;;;2.75;;
23317;SDS011;11831;55.918;37.746;2023-06-14T06:29:19;5.45;;;2.80;;
23317;SDS011;11831;55.918;37.746;2023-06-14T06:31:45;5.55;;;2.62;;
23317;SDS011;11831;55.918;37.746;2023-06-14T06:34:12;8.43;;;2.80;;
23317;SDS011;11831;55.918;37.746;2023-06-14T06:36:38;6.22;;;2.90;;
23317;SDS011;11831;55.918;37.746;2023-06-14T06:39:05;5.93;;;2.95;;
23317;SDS011;11831;55.918;37.746;2023-06-14T06:41:37;5.25;;;2.90;;
23317;SDS011;11831;55.918;37.746;2023-06-14T06:44:06;3.83;;;2.65;;
23317;SDS011;11831;55.918;37.746;2023-06-14T06:46:33;8.13;;;5.93;;
23317;SDS011;11831;55.918;37.746;2023-06-14T06:49:01;8.35;;;5.30;;
23317;SDS011;11831;55.918;37.746;2023-06-14T06:51:27;6.18;;;3.08;;
23317;SDS011;11831;55.918;37.746;2023-06-14T06:53:54;7.03;;;3.20;;
23317;SDS011;11831;55.918;37.746;2023-06-14T06:56:21;3.95;;;2.85;;
23317;SDS011;11831;55.918;37.746;2023-06-14T06:58:50;4.80;;;2.87;;
23317;SDS011;11831;55.918;37.746;2023-06-14T07:01:17;4.97;;;2.92;;
23317;SDS011;11831;55.918;37.746;2023-06-14T07:03:45;5.60;;;3.05;;
23317;SDS011;11831;55.918;37.746;2023-06-14T07:06:12;4.28;;;2.75;;
23317;SDS011;11831;55.918;37.746;2023-06-14T07:08:38;4.50;;;2.90;;
23317;SDS011;11831;55.918;37.746;2023-06-14T07:11:05;3.87;;;2.83;;
23317;SDS011;11831;55.918;37.746;2023-06-14T07:13:32;4.78;;;2.80;;
23317;SDS011;11831;55.918;37.746;2023-06-14T07:15:59;7.57;;;3.00;;
23317;SDS011;11831;55.918;37.746;2023-06-14T07:18:26;5.10;;;2.83;;
23317;SDS011;11831;55.918;37.746;2023-06-14T07:20:53;4.65;;;2.90;;
23317;SDS011;11831;55.918;37.746;2023-06-14T07:23:20;6.60;;;2.80;;
23317;SDS011;11831;55.918;37.746;2023-06-14T07:25:47;5.30;;;3.42;;
23317;SDS011;11831;55.918;37.746;2023-06-14T07:28:14;5.70;;;2.75;;
23317;SDS011;11831;55.918;37.746;2023-06-14T07:30:42;8.10;;;3.75;;
23317;SDS011;11831;55.918;37.746;2023-06-14T07:33:09;3.97;;;3.05;;
23317;SDS011;11831;55.918;37.746;2023-06-14T07:35:37;5.72;;;2.87;;
23317;SDS011;11831;55.918;37.746;2023-06-14T07:38:04;9.40;;;3.97;;
23317;SDS011;11831;55.918;37.746;2023-06-14T07:40:31;5.93;;;2.72;;
23317;SDS011;11831;55.918;37.746;2023-06-14T07:42:57;7.75;;;3.95;;
23317;SDS011;11831;55.918;37.746;2023-06-14T07:45:24;5.25;;;2.97;;
23317;SDS011;11831;55.918;37.746;2023-06-14T07:47:51;10.00;;;4.40;;
23317;SDS011;11831;55.918;37.746;2023-06-14T07:50:18;4.07;;;2.62;;
23317;SDS011;11831;55.918;37.746;2023-06-14T07:52:44;5.80;;;2.87;;
23317;SDS011;11831;55.918;37.746;2023-06-14T07:55:12;7.47;;;3.53;;
23317;SDS011;11831;55.918;37.746;2023-06-14T07:57:41;6.22;;;3.15;;
23317;SDS011;11831;55.918;37.746;2023-06-14T08:00:08;6.90;;;3.62;;
23317;SDS011;11831;55.918;37.746;2023-06-14T08:02:38;5.47;;;3.10;;
23317;SDS011;11831;55.918;37.746;2023-06-14T08:05:05;5.72;;;2.80;;
23317;SDS011;11831;55.918;37.746;2023-06-14T08:07:32;6.78;;;3.40;;
23317;SDS011;11831;55.918;37.746;2023-06-14T08:09:58;5.43;;;3.00;;
23317;SDS011;11831;55.918;37.746;2023-06-14T08:12:25;10.45;;;6.40;;
23317;SDS011;11831;55.918;37.746;2023-06-14T08:14:52;6.65;;;3.30;;
23317;SDS011;11831;55.918;37.746;2023-06-14T08:17:18;5.65;;;2.65;;
23317;SDS011;11831;55.918;37.746;2023-06-14T08:19:45;9.82;;;3.47;;
23317;SDS011;11831;55.918;37.746;2023-06-14T08:22:12;9.20;;;2.95;;
23317;SDS011;11831;55.918;37.746;2023-06-14T08:24:38;4.60;;;2.55;;
23317;SDS011;11831;55.918;37.746;2023-06-14T08:27:06;6.78;;;3.10;;
23317;SDS011;11831;55.918;37.746;2023-06-14T08:29:33;6.32;;;3.05;;
23317;SDS011;11831;55.918;37.746;2023-06-14T08:32:00;3.92;;;2.70;;
23317;SDS011;11831;55.918;37.746;2023-06-14T08:34:26;7.78;;;3.42;;
23317;SDS011;11831;55.918;37.746;2023-06-14T08:36:53;4.87;;;3.03;;
23317;SDS011;11831;55.918;37.746;2023-06-14T08:39:19;5.03;;;2.87;;
23317;SDS011;11831;55.918;37.746;2023-06-14T08:41:46;4.68;;;3.30;;
23317;SDS011;11831;55.918;37.746;2023-06-14T08:44:16;6.45;;;3.22;;
23317;SDS011;11831;55.918;37.746;2023-06-14T08:46:43;4.80;;;3.00;;
23317;SDS011;11831;55.918;37.746;2023-06-14T08:49:11;4.43;;;3.03;;
23317;SDS011;11831;55.918;37.746;2023-06-14T08:51:38;3.87;;;3.47;;
23317;SDS011;11831;55.918;37.746;2023-06-14T08:54:06;11.32;;;7.22;;
23317;SDS011;11831;55.918;37.746;2023-06-14T08:56:33;8.25;;;6.07;;
23317;SDS011;11831;55.918;37.746;2023-06-14T08:59:00;5.05;;;3.67;;
23317;SDS011;11831;55.918;37.746;2023-06-14T09:01:33;4.12;;;3.10;;
23317;SDS011;11831;55.918;37.746;2023-06-14T09:04:00;7.55;;;3.75;;
23317;SDS011;11831;55.918;37.746;2023-06-14T09:06:28;4.57;;;2.87;;
23317;SDS011;11831;55.918;37.746;2023-06-14T09:08:59;6.25;;;3.30;;
23317;SDS011;11831;55.918;37.746;2023-06-14T09:11:25;4.95;;;2.90;;
23317;SDS011;11831;55.918;37.746;2023-06-14T09:13:52;7.10;;;3.60;;
23317;SDS011;11831;55.918;37.746;2023-06-14T09:16:19;7.37;;;3.00;;
23317;SDS011;11831;55.918;37.746;2023-06-14T09:18:46;7.50;;;3.25;;
23317;SDS011;11831;55.918;37.746;2023-06-14T09:21:15;6.00;;;3.00;;
23317;SDS011;11831;55.918;37.746;2023-06-14T09:23:43;6.25;;;2.92;;
23317;SDS011;11831;55.918;37.746;2023-06-14T09:26:12;3.53;;;3.10;;
23317;SDS011;11831;55.918;37.746;2023-06-14T09:28:41;3.97;;;2.97;;
23317;SDS011;11831;55.918;37.746;2023-06-14T09:31:13;6.20;;;3.62;;
23317;SDS011;11831;55.918;37.746;2023-06-14T09:33:43;5.20;;;3.03;;
23317;SDS011;11831;55.918;37.746;2023-06-14T09:36:18;6.37;;;3.03;;
23317;SDS011;11831;55.918;37.746;2023-06-14T09:38:51;7.35;;;3.33;;
23317;SDS011;11831;55.918;37.746;2023-06-14T09:41:31;4.30;;;2.95;;
23317;SDS011;11831;55.918;37.746;2023-06-14T09:43:59;5.05;;;3.50;;
23317;SDS011;11831;55.918;37.746;2023-06-14T09:46:28;5.18;;;3.40;;
23317;SDS011;11831;55.918;37.746;2023-06-14T09:48:59;5.43;;;3.35;;
23317;SDS011;11831;55.918;37.746;2023-06-14T09:51:27;3.62;;;2.90;;
23317;SDS011;11831;55.918;37.746;2023-06-14T09:54:00;6.93;;;2.95;;
23317;SDS011;11831;55.918;37.746;2023-06-14T09:56:28;5.72;;;3.05;;
23317;SDS011;11831;55.918;37.746;2023-06-14T09:58:56;4.95;;;3.22;;
23317;SDS011;11831;55.918;37.746;2023-06-14T10:01:25;4.20;;;2.60;;
23317;SDS011;11831;55.918;37.746;2023-06-14T10:06:26;5.43;;;3.10;;
23317;SDS011;11831;55.918;37.746;2023-06-14T10:08:59;4.03;;;3.00;;
23317;SDS011;11831;55.918;37.746;2023-06-14T10:11:26;3.47;;;2.83;;
23317;SDS011;11831;55.918;37.746;2023-06-14T10:13:57;10.80;;;4.60;;
23317;SDS011;11831;55.918;37.746;2023-06-14T10:16:36;4.68;;;3.20;;
23317;SDS011;11831;55.918;37.746;2023-06-14T10:19:18;3.80;;;3.20;;
23317;SDS011;11831;55.918;37.746;2023-06-14T10:21:55;9.27;;;3.35;;
23317;SDS011;11831;55.918;37.746;2023-06-14T10:24:43;4.65;;;3.00;;
23317;SDS011;11831;55.918;37.746;2023-06-14T10:27:14;4.90;;;2.90;;
23317;SDS011;11831;55.918;37.746;2023-06-14T10:32:20;4.72;;;2.65;;
23317;SDS011;11831;55.918;37.746;2023-06-14T10:34:56;4.75;;;3.00;;
23317;SDS011;11831;55.918;37.746;2023-06-14T10:37:26;3.83;;;2.85;;
23317;SDS011;11831;55.918;37.746;2023-06-14T10:39:53;4.78;;;2.97;;
23317;SDS011;11831;55.918;37.746;2023-06-14T10:42:20;3.55;;;2.70;;
23317;SDS011;11831;55.918;37.746;2023-06-14T10:44:51;5.07;;;3.10;;
23317;SDS011;11831;55.918;37.746;2023-06-14T10:47:32;4.45;;;3.10;;
23317;SDS011;11831;55.918;37.746;2023-06-14T10:50:05;3.28;;;2.55;;
23317;SDS011;11831;55.918;37.746;2023-06-14T10:52:33;7.43;;;2.97;;
23317;SDS011;11831;55.918;37.746;2023-06-14T10:59:59;5.10;;;3.00;;
23317;SDS011;11831;55.918;37.746;2023-06-14T11:06:00;4.53;;;2.97;;
23317;SDS011;11831;55.918;37.746;2023-06-14T11:11:32;4.87;;;2.72;;
23317;SDS011;11831;55.918;37.746;2023-06-14T11:14:00;5.07;;;2.90;;
23317;SDS011;11831;55.918;37.746;2023-06-14T11:16:28;3.83;;;2.90;;
23317;SDS011;11831;55.918;37.746;2023-06-14T11:18:55;7.15;;;3.10;;
23317;SDS011;11831;55.918;37.746;2023-06-14T11:21:22;3.67;;;2.90;;
23317;SDS011;11831;55.918;37.746;2023-06-14T11:23:51;3.10;;;2.80;;
23317;SDS011;11831;55.918;37.746;2023-06-14T11:26:25;4.45;;;2.70;;
23317;SDS011;11831;55.918;37.746;2023-06-14T11:28:54;4.93;;;2.72;;
23317;SDS011;11831;55.918;37.746;2023-06-14T11:31:23;6.20;;;3.10;;
23317;SDS011;11831;55.918;37.746;2023-06-14T11:33:50;5.82;;;2.45;;
23317;SDS011;11831;55.918;37.746;2023-06-14T11:36:17;6.35;;;2.90;;
23317;SDS011;11831;55.918;37.746;2023-06-14T11:38:44;4.47;;;2.60;;
23317;SDS011;11831;55.918;37.746;2023-06-14T11:41:10;5.68;;;2.87;;
23317;SDS011;11831;55.918;37.746;2023-06-14T11:43:37;7.47;;;4.70;;
23317;SDS011;11831;55.918;37.746;2023-06-14T11:46:11;4.47;;;3.10;;
23317;SDS011;11831;55.918;37.746;2023-06-14T11:48:41;6.50;;;3.37;;
23317;SDS011;11831;55.918;37.746;2023-06-14T11:51:08;11.65;;;4.25;;
23317;SDS011;11831;55.918;37.746;2023-06-14T11:53:35;3.35;;;2.95;;
23317;SDS011;11831;55.918;37.746;2023-06-14T11:56:01;6.47;;;2.70;;
23317;SDS011;11831;55.918;37.746;2023-06-14T11:58:29;3.72;;;2.80;;
23317;SDS011;11831;55.918;37.746;2023-06-14T12:00:56;6.00;;;3.12;;
23317;SDS011;11831;55.918;37.746;2023-06-14T12:03:23;3.42;;;2.87;;
23317;SDS011;11831;55.918;37.746;2023-06-14T12:06:06;6.05;;;3.83;;
23317;SDS011;11831;55.918;37.746;2023-06-14T12:08:35;5.30;;;2.95;;
23317;SDS011;11831;55.918;37.746;2023-06-14T12:11:11;3.87;;;2.97;;
23317;SDS011;11831;55.918;37.746;2023-06-14T12:13:40;4.93;;;3.55;;
23317;SDS011;11831;55.918;37.746;2023-06-14T12:16:10;4.90;;;3.53;;
23317;SDS011;11831;55.918;37.746;2023-06-14T12:18:38;5.30;;;3.20;;
23317;SDS011;11831;55.918;37.746;2023-06-14T12:21:07;4.75;;;3.08;;
23317;SDS011;11831;55.918;37.746;2023-06-14T12:23:44;3.72;;;3.22;;
23317;SDS011;11831;55.918;37.746;2023-06-14T12:26:21;3.65;;;3.25;;
23317;SDS011;11831;55.918;37.746;2023-06-14T12:28:47;4.50;;;3.42;;
23317;SDS011;11831;55.918;37.746;2023-06-14T12:31:15;5.47;;;3.60;;
23317;SDS011;11831;55.918;37.746;2023-06-14T12:33:42;4.72;;;3.28;;
23317;SDS011;11831;55.918;37.746;2023-06-14T12:36:11;5.30;;;3.22;;
23317;SDS011;11831;55.918;37.746;2023-06-14T12:38:38;5.03;;;3.78;;
23317;SDS011;11831;55.918;37.746;2023-06-14T12:41:04;5.12;;;3.60;;
23317;SDS011;11831;55.918;37.746;2023-06-14T12:43:31;14.63;;;13.13;;
23317;SDS011;11831;55.918;37.746;2023-06-14T12:45:58;4.12;;;3.45;;
23317;SDS011;11831;55.918;37.746;2023-06-14T12:48:25;6.30;;;3.67;;
23317;SDS011;11831;55.918;37.746;2023-06-14T12:50:58;5.45;;;3.33;;
23317;SDS011;11831;55.918;37.746;2023-06-14T12:53:25;7.12;;;3.37;;
23317;SDS011;11831;55.918;37.746;2023-06-14T12:55:51;5.62;;;3.33;;
23317;SDS011;11831;55.918;37.746;2023-06-14T12:58:18;5.15;;;3.40;;
23317;SDS011;11831;55.918;37.746;2023-06-14T13:00:46;5.72;;;3.53;;
23317;SDS011;11831;55.918;37.746;2023-06-14T13:03:13;5.22;;;3.37;;
23317;SDS011;11831;55.918;37.746;2023-06-14T13:05:40;3.83;;;3.53;;
23317;SDS011;11831;55.918;37.746;2023-06-14T13:08:07;5.12;;;4.47;;
23317;SDS011;11831;55.918;37.746;2023-06-14T13:10:34;7.37;;;5.07;;
23317;SDS011;11831;55.918;37.746;2023-06-14T13:13:01;5.47;;;3.85;;
23317;SDS011;11831;55.918;37.746;2023-06-14T13:15:28;5.25;;;3.78;;
23317;SDS011;11831;55.918;37.746;2023-06-14T13:17:55;5.05;;;4.10;;
23317;SDS011;11831;55.918;37.746;2023-06-14T13:20:22;3.72;;;3.42;;
23317;SDS011;11831;55.918;37.746;2023-06-14T13:22:49;7.72;;;3.40;;
23317;SDS011;11831;55.918;37.746;2023-06-14T13:25:16;6.35;;;3.45;;
23317;SDS011;11831;55.918;37.746;2023-06-14T13:27:43;7.68;;;3.40;;
23317;SDS011;11831;55.918;37.746;2023-06-14T13:30:09;7.05;;;3.85;;
23317;SDS011;11831;55.918;37.746;2023-06-14T13:32:36;5.53;;;3.67;;
23317;SDS011;11831;55.918;37.746;2023-06-14T13:35:03;3.42;;;3.12;;
23317;SDS011;11831;55.918;37.746;2023-06-14T13:37:30;3.70;;;3.28;;
23317;SDS011;11831;55.918;37.746;2023-06-14T13:39:57;4.20;;;3.80;;
23317;SDS011;11831;55.918;37.746;2023-06-14T13:42:24;3.92;;;3.65;;
23317;SDS011;11831;55.918;37.746;2023-06-14T13:44:51;7.22;;;3.67;;
23317;SDS011;11831;55.918;37.746;2023-06-14T13:47:18;3.83;;;3.37;;
23317;SDS011;11831;55.918;37.746;2023-06-14T13:49:45;4.37;;;4.07;;
23317;SDS011;11831;55.918;37.746;2023-06-14T13:52:11;4.55;;;3.62;;
23317;SDS011;11831;55.918;37.746;2023-06-14T13:54:39;6.32;;;5.62;;
23317;SDS011;11831;55.918;37.746;2023-06-14T13:57:06;6.10;;;3.53;;
23317;SDS011;11831;55.918;37.746;2023-06-14T13:59:33;6.15;;;3.97;;
23317;SDS011;11831;55.918;37.746;2023-06-14T14:02:00;4.43;;;3.60;;
23317;SDS011;11831;55.918;37.746;2023-06-14T14:04:27;5.93;;;3.72;;
23317;SDS011;11831;55.918;37.746;2023-06-14T14:06:53;6.10;;;3.95;;
23317;SDS011;11831;55.918;37.746;2023-06-14T14:09:20;6.85;;;4.07;;
23317;SDS011;11831;55.918;37.746;2023-06-14T14:11:47;8.95;;;4.12;;
23317;SDS011;11831;55.918;37.746;2023-06-14T14:14:14;6.68;;;3.90;;
23317;SDS011;11831;55.918;37.746;2023-06-14T14:16:41;5.78;;;3.75;;
23317;SDS011;11831;55.918;37.746;2023-06-14T14:19:08;8.30;;;4.68;;
23317;SDS011;11831;55.918;37.746;2023-06-14T14:21:34;5.10;;;4.30;;
23317;SDS011;11831;55.918;37.746;2023-06-14T14:24:02;8.63;;;3.95;;
23317;SDS011;11831;55.918;37.746;2023-06-14T14:26:29;7.37;;;4.10;;
23317;SDS011;11831;55.918;37.746;2023-06-14T14:28:56;5.50;;;3.80;;
23317;SDS011;11831;55.918;37.746;2023-06-14T14:31:23;4.90;;;3.60;;
23317;SDS011;11831;55.918;37.746;2023-06-14T14:33:49;7.68;;;3.78;;
23317;SDS011;11831;55.918;37.746;2023-06-14T14:36:16;4.35;;;3.50;;
23317;SDS011;11831;55.918;37.746;2023-06-14T14:38:43;7.32;;;3.67;;
23317;SDS011;11831;55.918;37.746;2023-06-14T14:41:09;6.22;;;3.50;;
23317;SDS011;11831;55.918;37.746;2023-06-14T14:43:36;6.12;;;4.05;;
23317;SDS011;11831;55.918;37.746;2023-06-14T14:46:03;6.70;;;4.18;;
23317;SDS011;11831;55.918;37.746;2023-06-14T14:48:29;4.18;;;3.45;;
23317;SDS011;11831;55.918;37.746;2023-06-14T14:50:56;6.05;;;4.60;;
23317;SDS011;11831;55.918;37.746;2023-06-14T14:53:23;5.60;;;3.42;;